INDIA METEOROLOGICAL DEPARTMENT, R.M.C. NEW DELHI
Dated:24 - 4 - 2017
METARS OF ALTERNATE AIRPORTS
Delhi      
VIDP 241300Z 29008KT 4000 HZ FEW040 36/10 Q1005 NOSIG=
Amritsar   
VIAR 241300Z 30006KT 6000 NSC 32/13 Q1006 NOSIG=
Lucknow    
VILK 241300Z 32002KT 3000 DU SCT025 38/17 Q1001 NOSIG=
Jaipur     
VIJP 241230Z 30008KT 4000 HZ FEW035CB SCT035 BKN100 35/11 Q1006 TEMPO 1500 TSRA=
Ahmedabad  
VAAH 241300Z 24007KT 5000 FU NSC 36/17 Q1007 BECMG 4000=
Udaipur    
VAUD 241300Z 24004KT 5000 HZ FEW030 34/11 Q1009 NOSIG=
Mumbai     
VABB 241300Z 27008KT 6000 NSC 30/23 Q1010 BECMG 5000 HZ=